Flight Track Log - Related Links

Times and Time Zones

All times are in EDT time to prevent confusion due to time zone crossing. See the N6GD flight status page for this flight to view local times or setup timezone preferences in your user account.

Time Position Orientation Groundspeed Altitude Reporting Facility
EDT Latitude Longitude Course Direction KTS MPH feet Rate Location/Type
Thu 07:00:10 PM 43.9589 -69.1211 229° Southwest 240 276 5,000  Level Boston Center
Thu 07:01:14 PM 43.9064 -69.2211 234° Southwest 260 299 8,100 2,928 Climbing Boston Center
Thu 07:02:15 PM 43.8597 -69.3078 233° Southwest 274 315 11,100 2,736 Climbing Boston Center
Thu 07:03:19 PM 43.8069 -69.4075 234° Southwest 300 345 13,800 2,371 Climbing Boston Center
Thu 07:04:00 PM 43.6882 -69.7333 180° South  Level FlightAware Approximate
Thu 07:04:19 PM 43.7547 -69.5039 233° Southwest 312 359 16,000  Level Boston Center
Thu 07:05:22 PM 43.6964 -69.6103 233° Southwest 321 369 18,500 2,032 Climbing Boston Center
Thu 07:06:23 PM 43.6492 -69.6997 234° Southwest 324 373 20,200 1,770 Climbing Boston Center
Thu 07:07:24 PM 43.5925 -69.8047 233° Southwest 336 387 22,100 1,920 Climbing Boston Center
Thu 07:08:28 PM 43.5242 -69.9317 233° Southwest 341 392 24,200 1,968 Climbing Boston Center
Thu 07:09:29 PM 43.4639 -70.0381 232° Southwest 349 402 26,200 2,331 Climbing Boston Center
Thu 07:10:29 PM 43.4081 -70.1431 234° Southwest 338 389 28,900 2,400 Climbing Boston Center
Thu 07:11:34 PM 43.3606 -70.2317 234° Southwest 322 371 31,200 2,112 Climbing Boston Center
Thu 07:12:34 PM 43.3003 -70.3375 232° Southwest 299 344 33,300 1,355 Climbing Boston Center
Thu 07:13:38 PM 43.2506 -70.4278 233° Southwest 299 344 34,000 532 Climbing Boston Center
Thu 07:14:38 PM 43.1939 -70.5294 233° Southwest 331 381 34,400 793 Climbing Boston Center
Thu 07:15:39 PM 43.1367 -70.6325 233° Southwest 340 391 35,600 768 Climbing Boston Center
Thu 07:16:43 PM 43.0786 -70.7350 232° Southwest 340 391 36,000 240 Climbing Boston Center
Thu 07:17:44 PM 43.0164 -70.8450 232° Southwest 364 419 36,100 49 Climbing Boston Center
Thu 07:18:45 PM 42.9417 -70.9772 232° Southwest 369 425 36,100 48 Level Boston Center
Thu 07:19:49 PM 42.8797 -71.0872 232° Southwest 369 425 36,200 528 Climbing Boston Center
Thu 07:20:50 PM 42.8158 -71.1972 232° Southwest 371 427 37,200 893 Climbing Boston Center
Thu 07:21:50 PM 42.7539 -71.3047 232° Southwest 368 423 38,000 387 Climbing Boston Center
Thu 07:22:54 PM 42.6900 -71.4103 231° Southwest 366 421 38,000  Level Boston Center
Thu 07:23:55 PM 42.6225 -71.5164 229° Southwest 368 423 38,000  Level Boston Center
Thu 07:24:56 PM 42.5478 -71.6342 229° Southwest 372 428 38,000  Level Boston Center
Thu 07:25:58 PM 42.4828 -71.7381 230° Southwest 365 420 38,000  Level Boston Center
Thu 07:26:59 PM 42.4158 -71.8411 229° Southwest 365 420 38,000  Level Boston Center
Thu 07:28:03 PM 42.3497 -71.9464 230° Southwest 365 420 38,000  Level Boston Center
Thu 07:29:04 PM 42.2822 -72.0519 229° Southwest 367 422 38,000  Level Boston Center
Thu 07:30:05 PM 42.2006 -72.1797 229° Southwest 371 427 38,000  Level Boston Center
Thu 07:31:09 PM 42.1319 -72.2858 229° Southwest 374 430 38,000  Level Boston Center
Thu 07:32:10 PM 42.0628 -72.3919 229° Southwest 375 432 38,000  Level Boston Center
Thu 07:33:11 PM 41.9944 -72.4983 229° Southwest 376 433 38,000  Level Boston Center
Thu 07:34:12 PM 41.9256 -72.6053 229° Southwest 376 433 38,000  Level Boston Center
Thu 07:35:15 PM 41.8561 -72.7119 229° Southwest 376 433 38,000  Level Boston Center
Thu 07:36:17 PM 41.7861 -72.8183 229° Southwest 379 436 38,000  Level Boston Center
Thu 07:37:17 PM 41.7164 -72.9250 229° Southwest 379 436 38,000  Level Boston Center
Thu 07:38:21 PM 41.6325 -73.0522 229° Southwest 379 436 38,000  Level Boston Center
Thu 07:39:22 PM 41.5614 -73.1583 228° Southwest 380 437 38,000  Level Boston Center
Thu 07:40:23 PM 41.4908 -73.2658 229° Southwest 380 437 38,000  Level Boston Center
Thu 07:41:26 PM 41.4214 -73.3714 229° Southwest 380 437 38,000  Level Boston Center
Thu 07:42:26 PM 41.3506 -73.4756 228° Southwest 380 437 38,000  Level Boston Center
Thu 07:43:27 PM 41.2800 -73.5794 228° Southwest 380 437 38,000  Level Boston Center
Thu 07:44:31 PM 41.2161 -73.6881 232° Southwest 380 437 38,000  Level Boston Center
Thu 07:46:26 PM 41.0875 -73.9056 232° Southwest 377 434 38,000  Level Washington Center
Thu 07:47:00 PM 41.0483 -73.9697 231° Southwest 375 432 38,000  Level New York Center
Thu 07:48:04 PM 40.9853 -74.0772 232° Southwest 374 430 38,000  Level New York Center
Thu 07:49:04 PM 40.9178 -74.1889 231° Southwest 372 428 38,000  Level New York Center
Thu 07:50:09 PM 40.8547 -74.2942 232° Southwest 370 426 38,000  Level New York Center
Thu 07:51:09 PM 40.7789 -74.4178 231° Southwest 365 420 38,000  Level New York Center
Thu 07:52:11 PM 40.7178 -74.5217 232° Southwest 362 417 38,000  Level New York Center
Thu 07:53:16 PM 40.6542 -74.6239 231° Southwest 362 417 38,000  Level New York Center
Thu 07:54:17 PM 40.5922 -74.7256 231° Southwest 360 414 38,000  Level New York Center
Thu 07:55:18 PM 40.5244 -74.8233 228° Southwest 362 417 38,000  Level New York Center
Thu 07:56:22 PM 40.4414 -74.9400 227° Southwest 364 419 38,000  Level New York Center
Thu 07:57:22 PM 40.3719 -75.0375 227° Southwest 365 420 38,000  Level New York Center
Thu 07:58:25 PM 40.2978 -75.1422 227° Southwest 365 420 38,000  Level New York Center
Thu 07:59:28 PM 40.2247 -75.2461 227° Southwest 364 419 38,000  Level New York Center
Thu 08:00:30 PM 40.1686 -75.3253 227° Southwest 361 415 38,000  Level New York Center
Thu 08:01:34 PM 40.0861 -75.4400 227° Southwest 362 417 38,000  Level New York Center
Thu 08:02:36 PM 40.0172 -75.5353 227° Southwest 364 419 38,000  Level New York Center
Thu 08:03:40 PM 39.9475 -75.6308 226° Southwest 365 420 38,000  Level New York Center
Thu 08:04:40 PM 39.8806 -75.7292 228° Southwest 366 421 38,000  Level New York Center
Thu 08:05:44 PM 39.8058 -75.8494 231° Southwest 362 417 38,000  Level New York Center
Thu 08:06:45 PM 39.7419 -75.9517 231° Southwest 360 414 38,000  Level New York Center
Thu 08:07:49 PM 39.6739 -76.0597 231° Southwest 360 414 38,000  Level New York Center
Thu 08:08:49 PM 39.6153 -76.1497 230° Southwest 360 414 38,000  Level New York Center
Thu 08:09:51 PM 39.5519 -76.2489 230° Southwest 356 410 38,000  Level New York Center
Thu 08:10:54 PM 39.4758 -76.3672 230° Southwest 356 410 38,000  Level New York Center
Thu 08:11:56 PM 39.4131 -76.4647 230° Southwest 355 409 38,000  Level New York Center
Thu 08:12:58 PM 39.3508 -76.5639 231° Southwest 355 409 38,000  Level New York Center
Thu 08:14:02 PM 39.2892 -76.6611 231° Southwest 353 406 38,000  Level New York Center
Thu 08:15:04 PM 39.2261 -76.7606 231° Southwest 356 410 38,000  Level New York Center
Thu 08:16:05 PM 39.1633 -76.8572 230° Southwest 355 409 38,000  Level New York Center
Thu 08:17:09 PM 39.0867 -76.9761 230° Southwest 358 412 38,000  Level New York Center
Thu 08:18:10 PM 39.0181 -77.0689 226° Southwest 358 412 38,000  Level New York Center
Thu 08:19:32 PM 38.9097 -77.1864 220° Southwest 360 414 38,000  Level Washington Center
Thu 08:20:36 PM 38.8328 -77.2711 221° Southwest 361 415 38,000  Level Washington Center
Thu 08:21:36 PM 38.7556 -77.3550 220° Southwest 360 414 38,000  Level Washington Center
Thu 08:22:40 PM 38.6769 -77.4381 220° Southwest 361 415 38,000  Level Washington Center
Thu 08:23:41 PM 38.5989 -77.5242 221° Southwest 363 418 38,000  Level Washington Center
Thu 08:24:43 PM 38.5206 -77.6092 220° Southwest 363 418 38,000  Level Washington Center
Thu 08:25:46 PM 38.4433 -77.6933 220° Southwest 363 418 38,000  Level Washington Center
Thu 08:26:48 PM 38.3661 -77.7769 220° Southwest 363 418 38,000  Level Washington Center
Thu 08:27:52 PM 38.2722 -77.8769 220° Southwest 364 419 38,000  Level Washington Center
Thu 08:28:52 PM 38.1944 -77.9606 220° Southwest 366 421 38,000  Level Washington Center
Thu 08:29:56 PM 38.1169 -78.0439 220° Southwest 366 421 38,000  Level Washington Center
Thu 08:30:56 PM 38.0386 -78.1267 220° Southwest 366 421 38,000  Level Washington Center
Thu 08:32:00 PM 37.9539 -78.2106 218° Southwest 366 421 38,000  Level Washington Center
Thu 08:33:00 PM 37.8708 -78.2897 217° Southwest 369 425 38,000  Level Washington Center
Thu 08:34:04 PM 37.7886 -78.3675 217° Southwest 369 425 38,000  Level Washington Center
Thu 08:35:07 PM 37.6878 -78.4633 217° Southwest 373 429 38,000  Level Washington Center
Thu 08:36:08 PM 37.6047 -78.5414 217° Southwest 374 430 38,000  Level Washington Center
Thu 08:37:12 PM 37.5208 -78.6203 217° Southwest 374 430 38,000  Level Washington Center
Thu 08:38:12 PM 37.4367 -78.6992 217° Southwest 374 430 38,000  Level Washington Center
Thu 08:39:16 PM 37.3539 -78.7781 217° Southwest 374 430 38,000  Level Washington Center
Thu 08:40:16 PM 37.2686 -78.8564 216° Southwest 375 432 38,000  Level Washington Center
Thu 08:41:20 PM 37.1667 -78.9511 217° Southwest 376 433 38,000  Level Washington Center
Thu 08:42:20 PM 37.0817 -79.0306 217° Southwest 377 434 38,000  Level Washington Center
Thu 08:43:24 PM 36.9961 -79.1097 216° Southwest 378 435 38,000  Level Washington Center
Thu 08:44:25 PM 36.9111 -79.1894 217° Southwest 379 436 38,000  Level Washington Center
Thu 08:45:28 PM 36.8244 -79.2675 216° Southwest 380 437 38,000  Level Washington Center
Thu 08:46:29 PM 36.7397 -79.3467 217° Southwest 380 437 38,000  Level Washington Center
Thu 08:47:33 PM 36.6356 -79.4428 217° Southwest 384 442 38,000  Level Washington Center
Thu 08:48:34 PM 36.5486 -79.5231 217° Southwest 389 448 38,000  Level Washington Center
Thu 08:49:35 PM 36.4611 -79.6019 216° Southwest 388 447 38,000  Level Washington Center
Thu 08:50:39 PM 36.3681 -79.6858 216° Southwest 388 447 38,000  Level Washington Center
Thu 08:51:39 PM 36.2800 -79.7653 216° Southwest 390 449 38,000  Level Washington Center
Thu 08:52:24 PM 36.2050 -79.8264 213° Southwest 396 456 38,000  Level Atlanta Center
Thu 08:53:24 PM 36.1158 -79.9056 216° Southwest 396 456 38,000  Level Atlanta Center
Thu 08:54:24 PM 36.0267 -79.9822 215° Southwest 396 456 38,000  Level Atlanta Center
Thu 08:55:24 PM 35.9219 -80.0361 203° Southwest 396 456 38,000  Level Atlanta Center
Thu 08:56:24 PM 35.8175 -80.0872 202° Southwest 401 461 38,000  Level Atlanta Center
Thu 08:57:24 PM 35.7125 -80.1383 202° Southwest 406 467 38,000  Level Atlanta Center
Thu 08:58:24 PM 35.6183 -80.1889 204° Southwest 411 473 38,000  Level Atlanta Center
Thu 08:59:24 PM 35.5136 -80.2422 203° Southwest 411 473 38,000  Level Atlanta Center
Thu 09:00:24 PM 35.4108 -80.2956 203° Southwest 411 473 38,000  Level Atlanta Center
Thu 09:01:24 PM 35.3039 -80.3486 202° Southwest 411 473 38,000  Level Atlanta Center
Thu 09:02:24 PM 35.1950 -80.4019 202° Southwest 411 473 38,000  Level Atlanta Center
Thu 09:03:39 PM 35.0586 -80.4683 202° Southwest 408 470 38,000  Level Jacksonville Center
Thu 09:04:39 PM 34.9531 -80.5219 203° Southwest 408 470 38,000  Level Jacksonville Center
Thu 09:05:39 PM 34.8497 -80.5728 202° Southwest 408 470 38,000  Level Jacksonville Center
Thu 09:06:39 PM 34.7425 -80.6289 203° Southwest 402 463 38,000  Level Jacksonville Center
Thu 09:07:39 PM 34.6389 -80.6744 200° South 397 457 38,000  Level Jacksonville Center
Thu 09:08:39 PM 34.5356 -80.7300 204° Southwest 426 490 38,000  Level Jacksonville Center
Thu 09:09:39 PM 34.4361 -80.7728 200° South 419 482 38,000  Level Jacksonville Center
Thu 09:10:39 PM 34.3308 -80.8308 204° Southwest 406 467 38,000  Level Jacksonville Center
Thu 09:11:39 PM 34.2314 -80.8783 202° Southwest 406 467 38,000  Level Jacksonville Center
Thu 09:12:39 PM 34.1258 -80.9283 201° Southwest 406 467 38,000  Level Jacksonville Center
Thu 09:13:39 PM 34.0222 -80.9783 202° Southwest 401 461 38,000  Level Jacksonville Center
Thu 09:14:39 PM 33.9061 -81.0308 201° Southwest 401 461 38,000  Level Jacksonville Center
Thu 09:15:39 PM 33.7983 -81.0781 200° South 411 473 38,000  Level Jacksonville Center
Thu 09:16:39 PM 33.7094 -81.1300 206° Southwest 411 473 38,000  Level Jacksonville Center
Thu 09:17:39 PM 33.6017 -81.1844 203° Southwest 416 479 38,000  Level Jacksonville Center
Thu 09:18:39 PM 33.4958 -81.2364 202° Southwest 416 479 38,000  Level Jacksonville Center
Thu 09:19:39 PM 33.3881 -81.2881 202° Southwest 416 479 38,000  Level Jacksonville Center
Thu 09:20:39 PM 33.2800 -81.3422 203° Southwest 416 479 38,000  Level Jacksonville Center
Thu 09:21:39 PM 33.1722 -81.3936 202° Southwest 421 484 38,000  Level Jacksonville Center
Thu 09:22:39 PM 33.0642 -81.4475 203° Southwest 421 484 38,000  Level Jacksonville Center
Thu 09:23:39 PM 32.9564 -81.4986 202° Southwest 421 484 38,000  Level Jacksonville Center
Thu 09:24:39 PM 32.8483 -81.5522 203° Southwest 421 484 38,000  Level Jacksonville Center
Thu 09:25:39 PM 32.7403 -81.6058 203° Southwest 421 484 38,000  Level Jacksonville Center
Thu 09:26:39 PM 32.6219 -81.6617 202° Southwest 421 484 38,000  Level Jacksonville Center
Thu 09:27:39 PM 32.5242 -81.7075 202° Southwest 421 484 38,000  Level Jacksonville Center
Thu 09:28:39 PM 32.4017 -81.7656 202° Southwest 421 484 38,000  Level Jacksonville Center
Thu 09:29:39 PM 32.3061 -81.8136 203° Southwest 421 484 38,000  Level Jacksonville Center
Thu 09:30:39 PM 32.1811 -81.8592 197° South 427 491 38,000  Level Jacksonville Center
Thu 09:31:39 PM 32.0622 -81.8825 189° South 433 498 38,000  Level Jacksonville Center
Thu 09:32:39 PM 31.9561 -81.9058 191° South 433 498 38,000  Level Jacksonville Center
Thu 09:33:39 PM 31.8267 -81.9292 189° South 427 491 38,000  Level Jacksonville Center
Thu 09:34:39 PM 31.7206 -81.9522 190° South 433 498 38,000  Level Jacksonville Center
Thu 09:35:39 PM 31.5911 -81.9781 190° South 428 493 38,000  Level Jacksonville Center
Thu 09:36:39 PM 31.4764 -81.9986 189° South 428 493 38,000  Level Jacksonville Center
Thu 09:37:39 PM 31.3681 -82.0192 189° South 433 498 38,000 -50 Level Jacksonville Center
Thu 09:38:39 PM 31.2533 -82.0444 191° South 428 493 37,900  Descending Jacksonville Center
Thu 09:39:39 PM 31.1367 -82.0650 189° South 428 493 38,000 50 Climbing Jacksonville Center
Thu 09:40:39 PM 31.0219 -82.0878 190° South 428 493 38,000  Level Jacksonville Center
Thu 09:41:39 PM 30.9072 -82.1106 190° South 428 493 38,000  Level Jacksonville Center
Thu 09:42:39 PM 30.7758 -82.1358 189° South 428 493 38,000  Level Jacksonville Center
Thu 09:43:39 PM 30.6611 -82.1583 190° South 433 498 38,000  Level Jacksonville Center
Thu 09:44:39 PM 30.5464 -82.1739 187° South 428 493 38,000  Level Jacksonville Center
Thu 09:45:39 PM 30.4275 -82.1964 189° South 428 493 38,000  Level Jacksonville Center
Thu 09:46:39 PM 30.3128 -82.2189 190° South 428 493 38,000 -100 Level Jacksonville Center
Thu 09:47:39 PM 30.1939 -82.2414 189° South 428 493 37,800 -1,100 Descending Jacksonville Center
Thu 09:48:39 PM 30.0750 -82.2636 189° South 428 493 35,800 -2,100 Descending Jacksonville Center
Thu 09:49:39 PM 29.9519 -82.2933 192° South 435 501 33,600 -2,300 Descending Jacksonville Center
Thu 09:50:39 PM 29.8308 -82.3131 188° South 440 506 31,200 -2,200 Descending Jacksonville Center
Thu 09:51:39 PM 29.7225 -82.3306 188° South 445 512 29,200 -2,200 Descending Jacksonville Center
Thu 09:52:39 PM 29.5994 -82.3503 188° South 445 512 26,800 -1,600 Descending Jacksonville Center
Thu 09:53:39 PM 29.4761 -82.3464 178° South 445 512 26,000 -1,300 Descending Jacksonville Center
Thu 09:54:39 PM 29.3572 -82.3303 173° South 440 506 24,200 -2,300 Descending Jacksonville Center
Thu 09:55:39 PM 29.2403 -82.3142 173° South 440 506 21,400 -2,750 Descending Jacksonville Center
Thu 09:56:39 PM 29.1317 -82.3031 175° South 424 488 18,700 -2,500 Descending Jacksonville Center
Thu 09:57:39 PM 29.0250 -82.2917 175° South 405 466 16,400 -2,200 Descending Jacksonville Center
Thu 09:58:39 PM 28.9103 -82.2783 174° South 394 453 14,300 -1,303 Descending Jacksonville Center
Thu 10:00:57 PM 28.7111 -82.2564 174° South 296 341 12,100 -1,000 Descending Miami Center
Thu 10:01:57 PM 28.6333 -82.2833 197° South 279 321 11,000 -833 Descending Tampa TRACON
Thu 10:03:21 PM 28.5333 -82.3500 210° Southwest 281 323 10,100 -476 Descending Tampa TRACON
Thu 10:04:03 PM 28.5000 -82.4000 233° Southwest 281 323 10,000 -59 Descending Tampa TRACON
Thu 10:05:03 PM 28.4333 -82.4500 213° Southwest 282 325 10,000 -783 Level Tampa TRACON
Thu 10:05:58 PM 28.3833 -82.5000 221° Southwest 277 319 8,500 -1,750 Descending Tampa TRACON
Thu 10:07:03 PM 28.3167 -82.5500 213° Southwest 270 311 6,500 -1,815 Descending Tampa TRACON
Thu 10:07:57 PM 28.2500 -82.5833 204° Southwest 264 304 4,900 -1,550 Descending Tampa TRACON
Thu 10:09:03 PM 28.1833 -82.6167 204° Southwest 253 291 3,400 -1,000 Descending Tampa TRACON
Thu 10:09:57 PM 28.1167 -82.6333 192° South 232 267 2,900 -895 Descending Tampa TRACON
Thu 10:10:57 PM 28.0667 -82.6667 210° Southwest 220 253 1,700 -694 Descending Tampa TRACON
Thu 10:11:58 PM 28.0167 -82.6833 196° South 165 190 1,500 -378 Descending Tampa TRACON
Thu 10:13:04 PM 27.9833 -82.7000 204° Southwest 120 138 900 -545 Descending Tampa TRACON
Thu 10:14:10 PM 27.9333 -82.7000 180° South 130 150 300 -545 Descending Tampa TRACON

Login

Don't have an account? Register now (free) for customized features, flight alerts, and more!